sensor_id;sensor_type;location;lat;lon;timestamp;P1;durP1;ratioP1;P2;durP2;ratioP2
68718;SDS011;55696;52.138;5.444;2023-10-13T00:00:27;17.13;;;9.38;;
68718;SDS011;55696;52.138;5.444;2023-10-13T00:03:03;19.48;;;9.85;;
68718;SDS011;55696;52.138;5.444;2023-10-13T00:05:32;17.05;;;9.90;;
68718;SDS011;55696;52.138;5.444;2023-10-13T00:08:00;19.58;;;10.25;;
68718;SDS011;55696;52.138;5.444;2023-10-13T00:10:32;20.63;;;11.40;;
68718;SDS011;55696;52.138;5.444;2023-10-13T00:13:00;21.40;;;10.50;;
68718;SDS011;55696;52.138;5.444;2023-10-13T00:15:42;17.42;;;9.73;;
68718;SDS011;55696;52.138;5.444;2023-10-13T00:18:26;25.45;;;11.43;;
68718;SDS011;55696;52.138;5.444;2023-10-13T00:21:00;19.35;;;10.30;;
68718;SDS011;55696;52.138;5.444;2023-10-13T00:23:41;22.83;;;10.53;;
68718;SDS011;55696;52.138;5.444;2023-10-13T00:26:28;20.27;;;10.48;;
68718;SDS011;55696;52.138;5.444;2023-10-13T00:29:00;19.23;;;9.77;;
68718;SDS011;55696;52.138;5.444;2023-10-13T00:31:38;17.90;;;9.57;;
68718;SDS011;55696;52.138;5.444;2023-10-13T00:34:07;17.90;;;9.32;;
68718;SDS011;55696;52.138;5.444;2023-10-13T00:36:38;20.43;;;10.57;;
68718;SDS011;55696;52.138;5.444;2023-10-13T00:39:36;19.88;;;9.10;;
68718;SDS011;55696;52.138;5.444;2023-10-13T00:42:06;18.02;;;9.40;;
68718;SDS011;55696;52.138;5.444;2023-10-13T00:44:34;15.15;;;8.20;;
68718;SDS011;55696;52.138;5.444;2023-10-13T00:47:11;14.80;;;8.73;;
68718;SDS011;55696;52.138;5.444;2023-10-13T00:49:58;16.97;;;9.03;;
68718;SDS011;55696;52.138;5.444;2023-10-13T00:52:26;17.13;;;9.10;;
68718;SDS011;55696;52.138;5.444;2023-10-13T00:54:52;21.75;;;8.27;;
68718;SDS011;55696;52.138;5.444;2023-10-13T00:57:20;18.48;;;9.25;;
68718;SDS011;55696;52.138;5.444;2023-10-13T00:59:53;23.38;;;9.75;;
68718;SDS011;55696;52.138;5.444;2023-10-13T01:02:21;17.73;;;9.50;;
68718;SDS011;55696;52.138;5.444;2023-10-13T01:05:06;20.00;;;9.15;;
68718;SDS011;55696;52.138;5.444;2023-10-13T01:07:37;17.67;;;8.93;;
68718;SDS011;55696;52.138;5.444;2023-10-13T01:10:08;18.40;;;9.10;;
68718;SDS011;55696;52.138;5.444;2023-10-13T01:12:39;17.80;;;9.15;;
68718;SDS011;55696;52.138;5.444;2023-10-13T01:15:09;19.40;;;9.57;;
68718;SDS011;55696;52.138;5.444;2023-10-13T01:17:37;19.33;;;9.05;;
68718;SDS011;55696;52.138;5.444;2023-10-13T01:20:04;17.20;;;9.95;;
68718;SDS011;55696;52.138;5.444;2023-10-13T01:22:31;24.75;;;11.48;;
68718;SDS011;55696;52.138;5.444;2023-10-13T01:25:00;23.27;;;10.98;;
68718;SDS011;55696;52.138;5.444;2023-10-13T01:27:37;19.07;;;11.00;;
68718;SDS011;55696;52.138;5.444;2023-10-13T01:30:08;21.48;;;10.52;;
68718;SDS011;55696;52.138;5.444;2023-10-13T01:32:49;23.95;;;12.90;;
68718;SDS011;55696;52.138;5.444;2023-10-13T01:35:26;18.70;;;10.70;;
68718;SDS011;55696;52.138;5.444;2023-10-13T01:38:02;20.45;;;11.07;;
68718;SDS011;55696;52.138;5.444;2023-10-13T01:40:29;21.93;;;10.83;;
68718;SDS011;55696;52.138;5.444;2023-10-13T01:43:00;23.55;;;11.18;;
68718;SDS011;55696;52.138;5.444;2023-10-13T01:45:27;22.60;;;11.65;;
68718;SDS011;55696;52.138;5.444;2023-10-13T01:47:57;19.48;;;11.15;;
68718;SDS011;55696;52.138;5.444;2023-10-13T01:50:24;24.10;;;11.63;;
68718;SDS011;55696;52.138;5.444;2023-10-13T01:52:58;18.23;;;10.80;;
68718;SDS011;55696;52.138;5.444;2023-10-13T01:55:39;20.88;;;11.98;;
68718;SDS011;55696;52.138;5.444;2023-10-13T01:58:10;22.27;;;11.00;;
68718;SDS011;55696;52.138;5.444;2023-10-13T02:00:49;21.42;;;10.30;;
68718;SDS011;55696;52.138;5.444;2023-10-13T02:03:16;19.88;;;10.85;;
68718;SDS011;55696;52.138;5.444;2023-10-13T02:05:44;20.10;;;11.13;;
68718;SDS011;55696;52.138;5.444;2023-10-13T02:08:15;16.73;;;9.98;;
68718;SDS011;55696;52.138;5.444;2023-10-13T02:10:55;16.42;;;9.32;;
68718;SDS011;55696;52.138;5.444;2023-10-13T02:13:23;13.48;;;8.85;;
68718;SDS011;55696;52.138;5.444;2023-10-13T02:15:55;19.63;;;9.77;;
68718;SDS011;55696;52.138;5.444;2023-10-13T02:18:24;19.53;;;9.40;;
68718;SDS011;55696;52.138;5.444;2023-10-13T02:21:02;21.98;;;9.65;;
68718;SDS011;55696;52.138;5.444;2023-10-13T02:23:39;20.50;;;10.35;;
68718;SDS011;55696;52.138;5.444;2023-10-13T02:26:26;16.88;;;8.45;;
68718;SDS011;55696;52.138;5.444;2023-10-13T02:28:59;15.70;;;8.90;;
68718;SDS011;55696;52.138;5.444;2023-10-13T02:31:30;15.13;;;8.73;;
68718;SDS011;55696;52.138;5.444;2023-10-13T02:33:57;15.05;;;8.73;;
68718;SDS011;55696;52.138;5.444;2023-10-13T02:36:26;19.33;;;9.45;;
68718;SDS011;55696;52.138;5.444;2023-10-13T02:39:12;16.00;;;8.45;;
68718;SDS011;55696;52.138;5.444;2023-10-13T02:41:40;20.98;;;8.82;;
68718;SDS011;55696;52.138;5.444;2023-10-13T02:44:07;17.17;;;8.50;;
68718;SDS011;55696;52.138;5.444;2023-10-13T02:46:36;16.42;;;9.13;;
68718;SDS011;55696;52.138;5.444;2023-10-13T02:49:06;15.93;;;8.00;;
68718;SDS011;55696;52.138;5.444;2023-10-13T02:51:37;16.10;;;8.52;;
68718;SDS011;55696;52.138;5.444;2023-10-13T02:54:08;17.52;;;8.48;;
68718;SDS011;55696;52.138;5.444;2023-10-13T02:56:37;15.70;;;8.30;;
68718;SDS011;55696;52.138;5.444;2023-10-13T02:59:37;17.83;;;8.65;;
68718;SDS011;55696;52.138;5.444;2023-10-13T03:02:07;16.45;;;8.77;;
68718;SDS011;55696;52.138;5.444;2023-10-13T03:04:46;18.50;;;8.40;;
68718;SDS011;55696;52.138;5.444;2023-10-13T03:07:13;16.75;;;8.73;;
68718;SDS011;55696;52.138;5.444;2023-10-13T03:09:50;16.73;;;7.80;;
68718;SDS011;55696;52.138;5.444;2023-10-13T03:12:18;16.58;;;7.93;;
68718;SDS011;55696;52.138;5.444;2023-10-13T03:14:46;16.23;;;8.88;;
68718;SDS011;55696;52.138;5.444;2023-10-13T03:17:15;16.73;;;8.40;;
68718;SDS011;55696;52.138;5.444;2023-10-13T03:19:48;15.32;;;9.50;;
68718;SDS011;55696;52.138;5.444;2023-10-13T03:22:21;15.70;;;8.57;;
68718;SDS011;55696;52.138;5.444;2023-10-13T03:24:59;11.50;;;7.55;;
68718;SDS011;55696;52.138;5.444;2023-10-13T03:27:31;17.75;;;8.70;;
68718;SDS011;55696;52.138;5.444;2023-10-13T03:30:17;17.55;;;8.98;;
68718;SDS011;55696;52.138;5.444;2023-10-13T03:32:44;18.70;;;7.80;;
68718;SDS011;55696;52.138;5.444;2023-10-13T03:35:20;20.40;;;8.00;;
68718;SDS011;55696;52.138;5.444;2023-10-13T03:37:51;14.50;;;7.55;;
68718;SDS011;55696;52.138;5.444;2023-10-13T03:40:18;19.25;;;7.82;;
68718;SDS011;55696;52.138;5.444;2023-10-13T03:42:49;18.00;;;7.43;;
68718;SDS011;55696;52.138;5.444;2023-10-13T03:45:25;15.10;;;7.32;;
68718;SDS011;55696;52.138;5.444;2023-10-13T03:47:53;15.13;;;7.00;;
68718;SDS011;55696;52.138;5.444;2023-10-13T03:50:20;12.68;;;6.63;;
68718;SDS011;55696;52.138;5.444;2023-10-13T03:52:56;14.10;;;7.00;;
68718;SDS011;55696;52.138;5.444;2023-10-13T03:55:26;14.75;;;6.28;;
68718;SDS011;55696;52.138;5.444;2023-10-13T03:57:55;14.07;;;6.28;;
68718;SDS011;55696;52.138;5.444;2023-10-13T04:00:23;12.50;;;6.50;;
68718;SDS011;55696;52.138;5.444;2023-10-13T04:02:57;14.88;;;7.07;;
68718;SDS011;55696;52.138;5.444;2023-10-13T04:05:42;13.73;;;6.97;;
68718;SDS011;55696;52.138;5.444;2023-10-13T04:08:27;13.32;;;7.00;;
68718;SDS011;55696;52.138;5.444;2023-10-13T04:10:55;14.43;;;6.72;;
68718;SDS011;55696;52.138;5.444;2023-10-13T04:13:23;12.63;;;6.83;;
68718;SDS011;55696;52.138;5.444;2023-10-13T04:16:08;12.98;;;6.53;;
68718;SDS011;55696;52.138;5.444;2023-10-13T04:19:01;15.50;;;7.13;;
68718;SDS011;55696;52.138;5.444;2023-10-13T04:21:28;14.05;;;6.63;;
68718;SDS011;55696;52.138;5.444;2023-10-13T04:24:23;14.10;;;6.55;;
68718;SDS011;55696;52.138;5.444;2023-10-13T04:26:52;13.47;;;6.13;;
68718;SDS011;55696;52.138;5.444;2023-10-13T04:29:38;16.52;;;6.53;;
68718;SDS011;55696;52.138;5.444;2023-10-13T04:32:14;11.38;;;6.68;;
68718;SDS011;55696;52.138;5.444;2023-10-13T04:34:55;13.57;;;6.55;;
68718;SDS011;55696;52.138;5.444;2023-10-13T04:37:24;12.23;;;6.25;;
68718;SDS011;55696;52.138;5.444;2023-10-13T04:40:14;13.83;;;6.50;;
68718;SDS011;55696;52.138;5.444;2023-10-13T04:42:43;11.13;;;6.13;;
68718;SDS011;55696;52.138;5.444;2023-10-13T04:45:17;15.07;;;6.72;;
68718;SDS011;55696;52.138;5.444;2023-10-13T04:47:59;16.08;;;6.65;;
68718;SDS011;55696;52.138;5.444;2023-10-13T04:50:46;11.88;;;6.40;;
68718;SDS011;55696;52.138;5.444;2023-10-13T04:53:14;11.20;;;5.97;;
68718;SDS011;55696;52.138;5.444;2023-10-13T04:56:00;14.60;;;6.07;;
68718;SDS011;55696;52.138;5.444;2023-10-13T04:58:30;13.10;;;6.18;;
68718;SDS011;55696;52.138;5.444;2023-10-13T05:01:00;12.35;;;5.68;;
68718;SDS011;55696;52.138;5.444;2023-10-13T05:03:50;10.13;;;5.60;;
68718;SDS011;55696;52.138;5.444;2023-10-13T05:06:39;7.70;;;5.07;;
68718;SDS011;55696;52.138;5.444;2023-10-13T05:09:12;10.48;;;5.40;;
68718;SDS011;55696;52.138;5.444;2023-10-13T05:11:58;13.65;;;5.22;;
68718;SDS011;55696;52.138;5.444;2023-10-13T05:14:43;9.20;;;5.47;;
68718;SDS011;55696;52.138;5.444;2023-10-13T05:17:29;8.77;;;4.78;;
68718;SDS011;55696;52.138;5.444;2023-10-13T05:20:15;8.87;;;4.70;;
68718;SDS011;55696;52.138;5.444;2023-10-13T05:23:00;9.38;;;5.15;;
68718;SDS011;55696;52.138;5.444;2023-10-13T05:25:45;10.02;;;5.05;;
68718;SDS011;55696;52.138;5.444;2023-10-13T05:28:31;12.32;;;5.93;;
68718;SDS011;55696;52.138;5.444;2023-10-13T05:31:17;10.15;;;6.22;;
68718;SDS011;55696;52.138;5.444;2023-10-13T05:34:02;9.60;;;6.10;;
68718;SDS011;55696;52.138;5.444;2023-10-13T05:36:48;10.27;;;5.93;;
68718;SDS011;55696;52.138;5.444;2023-10-13T05:39:33;17.02;;;7.10;;
68718;SDS011;55696;52.138;5.444;2023-10-13T05:42:19;11.45;;;6.43;;
68718;SDS011;55696;52.138;5.444;2023-10-13T05:45:04;10.15;;;5.05;;
68718;SDS011;55696;52.138;5.444;2023-10-13T05:47:34;14.03;;;6.27;;
68718;SDS011;55696;52.138;5.444;2023-10-13T05:50:10;13.30;;;5.45;;
68718;SDS011;55696;52.138;5.444;2023-10-13T05:52:49;16.20;;;5.22;;
68718;SDS011;55696;52.138;5.444;2023-10-13T05:55:29;11.50;;;4.88;;
68718;SDS011;55696;52.138;5.444;2023-10-13T05:58:15;13.35;;;5.13;;
68718;SDS011;55696;52.138;5.444;2023-10-13T06:01:01;10.80;;;4.67;;
68718;SDS011;55696;52.138;5.444;2023-10-13T06:03:47;13.80;;;4.65;;
68718;SDS011;55696;52.138;5.444;2023-10-13T06:06:32;14.13;;;4.47;;
68718;SDS011;55696;52.138;5.444;2023-10-13T06:09:17;20.83;;;5.00;;
68718;SDS011;55696;52.138;5.444;2023-10-13T06:12:03;15.50;;;4.75;;
68718;SDS011;55696;52.138;5.444;2023-10-13T06:14:49;14.20;;;4.93;;
68718;SDS011;55696;52.138;5.444;2023-10-13T06:17:34;14.05;;;5.00;;
68718;SDS011;55696;52.138;5.444;2023-10-13T06:20:20;13.60;;;5.57;;
68718;SDS011;55696;52.138;5.444;2023-10-13T06:23:05;14.55;;;5.47;;
68718;SDS011;55696;52.138;5.444;2023-10-13T06:25:51;14.95;;;5.18;;
68718;SDS011;55696;52.138;5.444;2023-10-13T06:28:36;9.03;;;4.40;;
68718;SDS011;55696;52.138;5.444;2023-10-13T06:31:07;11.52;;;4.95;;
68718;SDS011;55696;52.138;5.444;2023-10-13T06:33:48;12.98;;;4.97;;
68718;SDS011;55696;52.138;5.444;2023-10-13T06:36:15;14.73;;;5.50;;
68718;SDS011;55696;52.138;5.444;2023-10-13T06:38:44;9.52;;;5.32;;
68718;SDS011;55696;52.138;5.444;2023-10-13T06:41:11;10.93;;;5.23;;
68718;SDS011;55696;52.138;5.444;2023-10-13T06:43:46;10.85;;;4.90;;
68718;SDS011;55696;52.138;5.444;2023-10-13T06:46:26;8.75;;;5.30;;
68718;SDS011;55696;52.138;5.444;2023-10-13T06:48:55;10.77;;;5.13;;
68718;SDS011;55696;52.138;5.444;2023-10-13T06:51:25;17.52;;;5.57;;
68718;SDS011;55696;52.138;5.444;2023-10-13T06:53:57;11.17;;;5.97;;
68718;SDS011;55696;52.138;5.444;2023-10-13T06:56:24;11.40;;;6.22;;
68718;SDS011;55696;52.138;5.444;2023-10-13T06:58:55;13.15;;;6.60;;
68718;SDS011;55696;52.138;5.444;2023-10-13T07:01:26;12.05;;;6.75;;
68718;SDS011;55696;52.138;5.444;2023-10-13T07:03:54;16.48;;;7.20;;
68718;SDS011;55696;52.138;5.444;2023-10-13T07:06:22;13.40;;;6.97;;
68718;SDS011;55696;52.138;5.444;2023-10-13T07:08:49;13.85;;;7.70;;
68718;SDS011;55696;52.138;5.444;2023-10-13T07:11:25;11.10;;;7.10;;
68718;SDS011;55696;52.138;5.444;2023-10-13T07:14:04;15.13;;;7.70;;
68718;SDS011;55696;52.138;5.444;2023-10-13T07:16:43;14.30;;;7.60;;
68718;SDS011;55696;52.138;5.444;2023-10-13T07:19:13;13.07;;;7.53;;
68718;SDS011;55696;52.138;5.444;2023-10-13T07:21:46;16.10;;;7.43;;
68718;SDS011;55696;52.138;5.444;2023-10-13T07:24:13;14.32;;;7.40;;
68718;SDS011;55696;52.138;5.444;2023-10-13T07:26:42;13.73;;;7.60;;
68718;SDS011;55696;52.138;5.444;2023-10-13T07:29:10;15.75;;;7.18;;
68718;SDS011;55696;52.138;5.444;2023-10-13T07:31:37;14.37;;;7.20;;
68718;SDS011;55696;52.138;5.444;2023-10-13T07:34:07;14.98;;;6.93;;
68718;SDS011;55696;52.138;5.444;2023-10-13T07:36:43;12.25;;;6.38;;
68718;SDS011;55696;52.138;5.444;2023-10-13T07:39:10;11.57;;;6.60;;
68718;SDS011;55696;52.138;5.444;2023-10-13T07:41:51;12.50;;;6.07;;
68718;SDS011;55696;52.138;5.444;2023-10-13T07:44:30;14.20;;;5.97;;
68718;SDS011;55696;52.138;5.444;2023-10-13T07:47:00;14.05;;;6.00;;
68718;SDS011;55696;52.138;5.444;2023-10-13T07:49:32;13.32;;;6.05;;
68718;SDS011;55696;52.138;5.444;2023-10-13T07:52:08;12.65;;;5.70;;
68718;SDS011;55696;52.138;5.444;2023-10-13T07:54:46;11.60;;;5.43;;
68718;SDS011;55696;52.138;5.444;2023-10-13T07:57:26;14.43;;;5.47;;
68718;SDS011;55696;52.138;5.444;2023-10-13T07:59:56;13.48;;;5.45;;
68718;SDS011;55696;52.138;5.444;2023-10-13T08:02:58;16.02;;;5.65;;
68718;SDS011;55696;52.138;5.444;2023-10-13T08:05:45;12.80;;;5.15;;
68718;SDS011;55696;52.138;5.444;2023-10-13T08:08:38;15.13;;;6.25;;
68718;SDS011;55696;52.138;5.444;2023-10-13T08:11:09;15.40;;;4.73;;
68718;SDS011;55696;52.138;5.444;2023-10-13T08:13:38;13.10;;;5.20;;
68718;SDS011;55696;52.138;5.444;2023-10-13T08:16:30;19.45;;;5.00;;
68718;SDS011;55696;52.138;5.444;2023-10-13T08:19:19;13.93;;;4.80;;
68718;SDS011;55696;52.138;5.444;2023-10-13T08:21:47;10.30;;;4.82;;
68718;SDS011;55696;52.138;5.444;2023-10-13T08:24:41;13.17;;;4.80;;
68718;SDS011;55696;52.138;5.444;2023-10-13T08:27:08;14.02;;;5.18;;
68718;SDS011;55696;52.138;5.444;2023-10-13T08:29:41;15.32;;;4.90;;
68718;SDS011;55696;52.138;5.444;2023-10-13T08:35:02;12.75;;;4.80;;
68718;SDS011;55696;52.138;5.444;2023-10-13T08:37:30;10.90;;;4.80;;
68718;SDS011;55696;52.138;5.444;2023-10-13T08:40:48;15.75;;;4.88;;
68718;SDS011;55696;52.138;5.444;2023-10-13T08:43:42;13.73;;;4.50;;
68718;SDS011;55696;52.138;5.444;2023-10-13T08:46:20;14.63;;;4.90;;
68718;SDS011;55696;52.138;5.444;2023-10-13T08:49:01;12.15;;;4.78;;
68718;SDS011;55696;52.138;5.444;2023-10-13T08:51:49;11.10;;;4.30;;
68718;SDS011;55696;52.138;5.444;2023-10-13T08:54:32;14.38;;;4.97;;
68718;SDS011;55696;52.138;5.444;2023-10-13T08:57:05;12.05;;;4.20;;
68718;SDS011;55696;52.138;5.444;2023-10-13T08:59:46;18.73;;;4.72;;
68718;SDS011;55696;52.138;5.444;2023-10-13T09:02:22;12.38;;;4.70;;
68718;SDS011;55696;52.138;5.444;2023-10-13T09:05:10;18.57;;;4.97;;
68718;SDS011;55696;52.138;5.444;2023-10-13T09:07:57;12.82;;;4.45;;
68718;SDS011;55696;52.138;5.444;2023-10-13T09:10:36;13.77;;;4.47;;
68718;SDS011;55696;52.138;5.444;2023-10-13T09:13:11;12.93;;;4.25;;
68718;SDS011;55696;52.138;5.444;2023-10-13T09:15:47;15.80;;;5.20;;
68718;SDS011;55696;52.138;5.444;2023-10-13T09:18:26;18.37;;;4.33;;
68718;SDS011;55696;52.138;5.444;2023-10-13T09:21:09;12.77;;;4.53;;
68718;SDS011;55696;52.138;5.444;2023-10-13T09:23:54;12.63;;;4.78;;
68718;SDS011;55696;52.138;5.444;2023-10-13T09:26:41;15.00;;;4.63;;
68718;SDS011;55696;52.138;5.444;2023-10-13T09:29:15;14.18;;;4.40;;
68718;SDS011;55696;52.138;5.444;2023-10-13T09:31:46;14.07;;;4.63;;
68718;SDS011;55696;52.138;5.444;2023-10-13T09:34:21;13.73;;;5.32;;
68718;SDS011;55696;52.138;5.444;2023-10-13T09:36:58;12.27;;;5.10;;
68718;SDS011;55696;52.138;5.444;2023-10-13T09:39:29;11.38;;;4.57;;
68718;SDS011;55696;52.138;5.444;2023-10-13T09:41:56;15.43;;;4.50;;
68718;SDS011;55696;52.138;5.444;2023-10-13T09:44:23;17.20;;;4.70;;
68718;SDS011;55696;52.138;5.444;2023-10-13T09:46:58;15.75;;;4.55;;
68718;SDS011;55696;52.138;5.444;2023-10-13T09:49:37;11.07;;;5.00;;
68718;SDS011;55696;52.138;5.444;2023-10-13T09:52:16;10.30;;;4.18;;
68718;SDS011;55696;52.138;5.444;2023-10-13T09:55:00;11.48;;;5.10;;
68718;SDS011;55696;52.138;5.444;2023-10-13T09:57:54;18.53;;;5.37;;
68718;SDS011;55696;52.138;5.444;2023-10-13T10:00:31;14.75;;;5.15;;
68718;SDS011;55696;52.138;5.444;2023-10-13T10:03:08;11.32;;;4.38;;
68718;SDS011;55696;52.138;5.444;2023-10-13T10:05:42;12.68;;;4.20;;
68718;SDS011;55696;52.138;5.444;2023-10-13T10:08:25;17.75;;;5.65;;
68718;SDS011;55696;52.138;5.444;2023-10-13T10:13:46;18.83;;;4.53;;
68718;SDS011;55696;52.138;5.444;2023-10-13T10:16:29;12.57;;;5.00;;
68718;SDS011;55696;52.138;5.444;2023-10-13T10:19:15;14.85;;;4.50;;
68718;SDS011;55696;52.138;5.444;2023-10-13T10:21:43;16.38;;;5.50;;
68718;SDS011;55696;52.138;5.444;2023-10-13T10:24:15;16.57;;;4.90;;
68718;SDS011;55696;52.138;5.444;2023-10-13T10:26:56;13.18;;;4.75;;
68718;SDS011;55696;52.138;5.444;2023-10-13T10:29:23;10.63;;;4.75;;
68718;SDS011;55696;52.138;5.444;2023-10-13T10:31:50;14.30;;;5.10;;
68718;SDS011;55696;52.138;5.444;2023-10-13T10:34:17;14.10;;;4.93;;
68718;SDS011;55696;52.138;5.444;2023-10-13T10:36:46;14.73;;;4.90;;
68718;SDS011;55696;52.138;5.444;2023-10-13T10:39:14;17.25;;;5.10;;
68718;SDS011;55696;52.138;5.444;2023-10-13T10:41:42;18.67;;;5.32;;
68718;SDS011;55696;52.138;5.444;2023-10-13T10:44:09;13.85;;;4.88;;
68718;SDS011;55696;52.138;5.444;2023-10-13T10:46:43;15.10;;;4.80;;
68718;SDS011;55696;52.138;5.444;2023-10-13T10:49:27;16.63;;;5.37;;
68718;SDS011;55696;52.138;5.444;2023-10-13T10:51:58;13.85;;;5.07;;
68718;SDS011;55696;52.138;5.444;2023-10-13T10:54:31;14.93;;;5.05;;
68718;SDS011;55696;52.138;5.444;2023-10-13T10:56:59;13.40;;;5.72;;
68718;SDS011;55696;52.138;5.444;2023-10-13T10:59:39;13.23;;;4.68;;
68718;SDS011;55696;52.138;5.444;2023-10-13T11:02:09;15.93;;;5.23;;
68718;SDS011;55696;52.138;5.444;2023-10-13T11:04:41;16.33;;;5.25;;
68718;SDS011;55696;52.138;5.444;2023-10-13T11:07:24;13.10;;;5.72;;
68718;SDS011;55696;52.138;5.444;2023-10-13T11:09:54;13.45;;;5.15;;
68718;SDS011;55696;52.138;5.444;2023-10-13T11:12:33;21.35;;;6.22;;
68718;SDS011;55696;52.138;5.444;2023-10-13T11:15:01;14.27;;;4.63;;
68718;SDS011;55696;52.138;5.444;2023-10-13T11:17:42;13.02;;;5.05;;
68718;SDS011;55696;52.138;5.444;2023-10-13T11:20:18;13.30;;;5.28;;
68718;SDS011;55696;52.138;5.444;2023-10-13T11:22:52;19.13;;;5.65;;
68718;SDS011;55696;52.138;5.444;2023-10-13T11:25:23;20.00;;;5.40;;
68718;SDS011;55696;52.138;5.444;2023-10-13T11:30:46;17.92;;;5.38;;
68718;SDS011;55696;52.138;5.444;2023-10-13T11:33:19;14.43;;;4.82;;
68718;SDS011;55696;52.138;5.444;2023-10-13T11:35:56;14.18;;;4.47;;
68718;SDS011;55696;52.138;5.444;2023-10-13T11:38:33;14.18;;;4.88;;
68718;SDS011;55696;52.138;5.444;2023-10-13T11:41:16;15.77;;;4.60;;
68718;SDS011;55696;52.138;5.444;2023-10-13T11:43:50;18.10;;;5.75;;
68718;SDS011;55696;52.138;5.444;2023-10-13T11:46:22;17.70;;;5.97;;
68718;SDS011;55696;52.138;5.444;2023-10-13T11:49:11;13.88;;;4.88;;
68718;SDS011;55696;52.138;5.444;2023-10-13T11:51:45;19.05;;;5.35;;
68718;SDS011;55696;52.138;5.444;2023-10-13T11:56:41;17.30;;;5.53;;
68718;SDS011;55696;52.138;5.444;2023-10-13T11:59:09;19.60;;;4.88;;
68718;SDS011;55696;52.138;5.444;2023-10-13T12:01:45;10.90;;;4.95;;
68718;SDS011;55696;52.138;5.444;2023-10-13T12:04:35;12.32;;;5.35;;
68718;SDS011;55696;52.138;5.444;2023-10-13T12:07:19;19.40;;;5.33;;
68718;SDS011;55696;52.138;5.444;2023-10-13T12:09:51;15.68;;;5.72;;
68718;SDS011;55696;52.138;5.444;2023-10-13T12:12:21;12.70;;;5.28;;
68718;SDS011;55696;52.138;5.444;2023-10-13T12:14:48;15.82;;;5.50;;
68718;SDS011;55696;52.138;5.444;2023-10-13T12:17:19;13.20;;;5.30;;
68718;SDS011;55696;52.138;5.444;2023-10-13T12:19:52;16.03;;;5.50;;
68718;SDS011;55696;52.138;5.444;2023-10-13T12:22:19;26.50;;;6.13;;
68718;SDS011;55696;52.138;5.444;2023-10-13T12:25:02;15.80;;;5.07;;
68718;SDS011;55696;52.138;5.444;2023-10-13T12:27:47;10.80;;;5.03;;
68718;SDS011;55696;52.138;5.444;2023-10-13T12:30:15;17.42;;;5.57;;
68718;SDS011;55696;52.138;5.444;2023-10-13T12:32:51;13.97;;;5.27;;
68718;SDS011;55696;52.138;5.444;2023-10-13T12:35:25;20.80;;;5.72;;
68718;SDS011;55696;52.138;5.444;2023-10-13T12:38:01;17.90;;;5.40;;
68718;SDS011;55696;52.138;5.444;2023-10-13T12:40:31;16.60;;;5.40;;
68718;SDS011;55696;52.138;5.444;2023-10-13T12:43:17;17.73;;;5.30;;
68718;SDS011;55696;52.138;5.444;2023-10-13T12:46:02;13.73;;;5.70;;
68718;SDS011;55696;52.138;5.444;2023-10-13T12:48:48;13.20;;;4.80;;
68718;SDS011;55696;52.138;5.444;2023-10-13T12:51:33;15.98;;;5.22;;
68718;SDS011;55696;52.138;5.444;2023-10-13T12:54:00;16.75;;;5.10;;
68718;SDS011;55696;52.138;5.444;2023-10-13T12:56:32;16.83;;;6.70;;
68718;SDS011;55696;52.138;5.444;2023-10-13T12:58:59;21.63;;;6.10;;
68718;SDS011;55696;52.138;5.444;2023-10-13T13:01:26;16.27;;;5.07;;
68718;SDS011;55696;52.138;5.444;2023-10-13T13:03:59;17.05;;;5.50;;
68718;SDS011;55696;52.138;5.444;2023-10-13T13:06:29;19.17;;;5.05;;
68718;SDS011;55696;52.138;5.444;2023-10-13T13:08:57;16.20;;;5.20;;
68718;SDS011;55696;52.138;5.444;2023-10-13T13:11:25;20.07;;;5.20;;
68718;SDS011;55696;52.138;5.444;2023-10-13T13:13:56;15.35;;;5.15;;
68718;SDS011;55696;52.138;5.444;2023-10-13T13:16:23;13.93;;;4.90;;
68718;SDS011;55696;52.138;5.444;2023-10-13T13:18:57;15.20;;;4.82;;
68718;SDS011;55696;52.138;5.444;2023-10-13T13:21:24;20.85;;;5.97;;
68718;SDS011;55696;52.138;5.444;2023-10-13T13:23:51;14.10;;;5.00;;
68718;SDS011;55696;52.138;5.444;2023-10-13T13:26:24;16.77;;;5.63;;
68718;SDS011;55696;52.138;5.444;2023-10-13T13:28:51;15.43;;;5.75;;
68718;SDS011;55696;52.138;5.444;2023-10-13T13:31:18;21.75;;;5.95;;
68718;SDS011;55696;52.138;5.444;2023-10-13T13:33:51;20.52;;;6.68;;
68718;SDS011;55696;52.138;5.444;2023-10-13T13:36:18;26.40;;;6.03;;
68718;SDS011;55696;52.138;5.444;2023-10-13T13:38:45;18.08;;;6.10;;
68718;SDS011;55696;52.138;5.444;2023-10-13T13:41:13;17.80;;;6.15;;
68718;SDS011;55696;52.138;5.444;2023-10-13T13:46:16;19.80;;;5.75;;
68718;SDS011;55696;52.138;5.444;2023-10-13T13:48:44;18.30;;;5.43;;
68718;SDS011;55696;52.138;5.444;2023-10-13T13:51:14;15.88;;;5.93;;
68718;SDS011;55696;52.138;5.444;2023-10-13T13:53:42;16.58;;;6.20;;
68718;SDS011;55696;52.138;5.444;2023-10-13T13:56:12;23.52;;;6.72;;
68718;SDS011;55696;52.138;5.444;2023-10-13T13:58:45;15.38;;;5.68;;
68718;SDS011;55696;52.138;5.444;2023-10-13T14:01:14;16.60;;;6.10;;
68718;SDS011;55696;52.138;5.444;2023-10-13T14:03:41;14.25;;;5.78;;
68718;SDS011;55696;52.138;5.444;2023-10-13T14:06:12;13.43;;;6.18;;
68718;SDS011;55696;52.138;5.444;2023-10-13T14:09:01;18.23;;;6.30;;
68718;SDS011;55696;52.138;5.444;2023-10-13T14:12:00;19.50;;;5.88;;
68718;SDS011;55696;52.138;5.444;2023-10-13T14:14:47;14.23;;;5.13;;
68718;SDS011;55696;52.138;5.444;2023-10-13T14:17:22;17.38;;;5.40;;
68718;SDS011;55696;52.138;5.444;2023-10-13T14:19:56;15.00;;;5.80;;
68718;SDS011;55696;52.138;5.444;2023-10-13T14:22:24;18.52;;;6.43;;
68718;SDS011;55696;52.138;5.444;2023-10-13T14:24:51;14.20;;;6.03;;
68718;SDS011;55696;52.138;5.444;2023-10-13T14:27:21;15.77;;;6.20;;
68718;SDS011;55696;52.138;5.444;2023-10-13T14:29:49;19.30;;;6.50;;
68718;SDS011;55696;52.138;5.444;2023-10-13T14:32:19;19.13;;;5.97;;
68718;SDS011;55696;52.138;5.444;2023-10-13T14:34:50;14.65;;;5.55;;
68718;SDS011;55696;52.138;5.444;2023-10-13T14:37:21;17.00;;;5.45;;
68718;SDS011;55696;52.138;5.444;2023-10-13T14:39:56;19.93;;;5.43;;
68718;SDS011;55696;52.138;5.444;2023-10-13T14:42:24;20.00;;;5.82;;
68718;SDS011;55696;52.138;5.444;2023-10-13T14:44:52;22.05;;;6.20;;
68718;SDS011;55696;52.138;5.444;2023-10-13T14:47:23;16.05;;;6.03;;
68718;SDS011;55696;52.138;5.444;2023-10-13T14:49:53;15.68;;;5.68;;
68718;SDS011;55696;52.138;5.444;2023-10-13T14:52:24;15.67;;;6.90;;
68718;SDS011;55696;52.138;5.444;2023-10-13T14:54:52;17.08;;;6.63;;
68718;SDS011;55696;52.138;5.444;2023-10-13T14:57:22;17.77;;;5.45;;
68718;SDS011;55696;52.138;5.444;2023-10-13T14:59:54;16.00;;;6.00;;
68718;SDS011;55696;52.138;5.444;2023-10-13T15:02:21;24.75;;;7.03;;
68718;SDS011;55696;52.138;5.444;2023-10-13T15:04:49;11.90;;;5.70;;
68718;SDS011;55696;52.138;5.444;2023-10-13T15:07:16;10.82;;;5.38;;
68718;SDS011;55696;52.138;5.444;2023-10-13T15:09:44;12.43;;;6.22;;
68718;SDS011;55696;52.138;5.444;2023-10-13T15:12:11;17.08;;;5.70;;
68718;SDS011;55696;52.138;5.444;2023-10-13T15:14:44;18.35;;;7.05;;
68718;SDS011;55696;52.138;5.444;2023-10-13T15:17:11;19.40;;;6.20;;
68718;SDS011;55696;52.138;5.444;2023-10-13T15:19:42;14.90;;;5.65;;
68718;SDS011;55696;52.138;5.444;2023-10-13T15:22:09;18.13;;;7.07;;
68718;SDS011;55696;52.138;5.444;2023-10-13T15:24:43;16.65;;;5.45;;
68718;SDS011;55696;52.138;5.444;2023-10-13T15:27:11;20.17;;;6.28;;
68718;SDS011;55696;52.138;5.444;2023-10-13T15:29:38;17.87;;;6.20;;
68718;SDS011;55696;52.138;5.444;2023-10-13T15:32:05;17.55;;;6.22;;